Time;durP1;ratioP1;P1;durP2;ratioP2;P2;SDS_P1;SDS_P2;PMS_P1;PMS_P2;Temp;Humidity;BMP_temperature;BMP_pressure;BME280_temperature;BME280_humidity;BME280_pressure;Samples;Min_cycle;Max_cycle;Signal;HPM_P1;HPM_P2
2023/08/14 03:52:51;;;;;;;6.28;4.62;;;;;;;16.73;100.00;100869.78;6195635;27;20432;-84
2023/08/14 03:55:55;;;;;;;5.90;4.90;;;;;;;16.67;100.00;100876.91;5415778;32;34641;-84
2023/08/14 03:58:57;;;;;;;9.38;5.20;;;;;;;16.66;100.00;100874.37;5402596;32;34591;-85
2023/08/14 04:02:01;;;;;;;6.07;4.75;;;;;;;16.65;100.00;100884.44;5402890;32;33768;-84
2023/08/14 04:05:05;;;;;;;6.15;5.55;;;;;;;16.68;100.00;100881.28;5416139;32;34009;-85
2023/08/14 04:08:08;;;;;;;6.07;4.80;;;;;;;16.70;100.00;100876.50;5390198;32;33976;-84
2023/08/14 04:11:11;;;;;;;7.62;5.20;;;;;;;16.83;100.00;100881.16;5416530;32;33614;-84
2023/08/14 04:14:14;;;;;;;7.45;4.53;;;;;;;16.89;100.00;100888.47;5416062;32;34132;-84
2023/08/14 04:17:17;;;;;;;6.37;4.72;;;;;;;16.92;100.00;100893.50;5416256;32;33763;-84
2023/08/14 04:20:19;;;;;;;8.30;4.45;;;;;;;17.02;100.00;100892.25;5416039;32;34076;-85
2023/08/14 04:23:24;;;;;;;6.00;4.78;;;;;;;17.10;100.00;100892.88;5390969;32;33883;-85
2023/08/14 04:26:27;;;;;;;7.60;5.12;;;;;;;17.20;100.00;100900.66;5416329;32;33509;-88
2023/08/14 04:29:30;;;;;;;5.12;4.62;;;;;;;17.23;100.00;100895.63;5403081;32;33927;-89
2023/08/14 04:32:35;;;;;;;5.68;4.75;;;;;;;17.31;100.00;100901.91;5403227;32;34481;-89
2023/08/14 04:35:38;;;;;;;6.22;5.07;;;;;;;17.38;100.00;100902.75;5417187;32;33405;-85
2023/08/14 04:38:41;;;;;;;5.18;4.53;;;;;;;17.45;100.00;100901.69;5404379;32;34466;-85
2023/08/14 04:41:44;;;;;;;5.10;4.45;;;;;;;17.57;100.00;100904.59;5406311;32;34483;-85
2023/08/14 04:44:47;;;;;;;5.03;4.18;;;;;;;17.67;100.00;100904.19;5420747;32;34962;-85
2023/08/14 04:47:50;;;;;;;8.40;4.78;;;;;;;17.75;100.00;100901.22;5398771;32;33751;-85
2023/08/14 04:50:55;;;;;;;5.65;4.80;;;;;;;17.88;100.00;100903.97;5390889;32;33970;-84
2023/08/14 04:53:59;;;;;;;7.07;4.72;;;;;;;18.05;100.00;100893.44;5390515;32;34443;-85
2023/08/14 04:57:02;;;;;;;4.82;4.25;;;;;;;18.23;100.00;100887.31;5415750;32;35330;-85
2023/08/14 05:00:06;;;;;;;6.82;4.50;;;;;;;18.32;100.00;100894.19;5390291;32;34235;-85
2023/08/14 05:03:09;;;;;;;5.45;4.68;;;;;;;18.43;100.00;100900.00;5402396;32;34622;-85
2023/08/14 05:06:15;;;;;;;5.85;4.60;;;;;;;18.55;100.00;100896.38;5390915;32;33644;-85
2023/08/14 05:09:17;;;;;;;6.57;4.82;;;;;;;18.62;100.00;100903.69;5390372;32;34622;-84
2023/08/14 05:12:29;;;;;;;6.60;4.78;;;;;;;18.66;100.00;100902.19;5392384;32;33938;-84
2023/08/14 05:15:32;;;;;;;6.80;4.60;;;;;;;18.77;100.00;100906.97;5393133;32;34520;-84
2023/08/14 05:18:36;;;;;;;6.45;4.37;;;;;;;18.93;100.00;100909.19;5392716;32;33622;-85
2023/08/14 05:21:39;;;;;;;5.35;4.85;;;;;;;19.12;100.00;100903.81;5395634;32;34094;-85
2023/08/14 05:24:42;;;;;;;9.23;4.45;;;;;;;19.25;100.00;100910.03;5404957;32;33606;-84
2023/08/14 05:27:44;;;;;;;5.53;4.57;;;;;;;19.33;100.00;100908.06;5405322;32;34533;-84
2023/08/14 05:30:50;;;;;;;4.50;4.10;;;;;;;19.38;100.00;100910.97;5390707;32;34486;-84
2023/08/14 05:33:53;;;;;;;7.50;4.70;;;;;;;19.57;100.00;100911.84;5402076;32;34610;-85
2023/08/14 05:36:56;;;;;;;5.60;4.57;;;;;;;19.66;100.00;100910.53;5402080;32;33992;-84
2023/08/14 05:39:59;;;;;;;5.80;4.15;;;;;;;19.75;100.00;100906.47;5402108;32;34290;-85
2023/08/14 05:43:05;;;;;;;6.47;4.60;;;;;;;19.99;100.00;100910.19;5401112;32;34331;-85
2023/08/14 05:46:08;;;;;;;4.78;4.10;;;;;;;20.06;100.00;100907.38;5414368;32;33841;-85
2023/08/14 05:49:11;;;;;;;5.90;3.92;;;;;;;20.12;100.00;100907.31;5415194;32;33865;-84
2023/08/14 05:52:14;;;;;;;5.00;4.15;;;;;;;20.20;100.00;100911.63;5415449;32;34549;-84
2023/08/14 05:55:17;;;;;;;5.28;3.80;;;;;;;20.31;100.00;100910.03;5400908;32;33936;-84
2023/08/14 05:58:19;;;;;;;6.53;4.40;;;;;;;20.50;100.00;100911.66;5401711;32;34084;-84
2023/08/14 06:01:22;;;;;;;5.05;4.30;;;;;;;20.56;100.00;100910.81;5389500;32;33747;-84
2023/08/14 06:04:26;;;;;;;6.80;4.30;;;;;;;20.64;100.00;100917.00;5397479;32;34642;-84
2023/08/14 06:07:29;;;;;;;5.18;4.65;;;;;;;20.75;100.00;100916.22;5414136;32;34556;-84
2023/08/14 06:10:32;;;;;;;4.50;4.10;;;;;;;20.94;100.00;100925.22;5400849;32;34363;-84
2023/08/14 06:13:34;;;;;;;5.97;4.50;;;;;;;21.14;100.00;100930.38;5414830;32;34685;-84
2023/08/14 06:16:38;;;;;;;4.85;4.37;;;;;;;21.32;100.00;100927.56;5389655;32;34652;-84
2023/08/14 06:19:42;;;;;;;4.65;4.03;;;;;;;21.50;100.00;100930.25;5405501;32;31997;-85
2023/08/14 06:22:46;;;;;;;6.65;4.78;;;;;;;21.51;100.00;100931.91;5388980;32;34007;-85
2023/08/14 06:25:49;;;;;;;5.32;4.62;;;;;;;21.66;100.00;100936.09;5414674;32;33566;-85
2023/08/14 06:28:52;;;;;;;4.82;4.32;;;;;;;21.79;100.00;100935.88;5390276;32;34706;-85
2023/08/14 06:31:56;;;;;;;5.35;4.37;;;;;;;21.84;100.00;100938.72;5403663;32;34277;-85
2023/08/14 06:34:59;;;;;;;5.72;3.95;;;;;;;22.10;100.00;100939.31;5416665;32;33799;-89
2023/08/14 06:38:02;;;;;;;5.20;4.20;;;;;;;22.23;100.00;100928.13;5402950;32;33836;-89
2023/08/14 06:41:06;;;;;;;9.82;4.40;;;;;;;22.37;99.36;100931.41;5391629;32;34976;-87
2023/08/14 06:44:09;;;;;;;6.28;4.53;;;;;;;22.54;97.65;100943.28;5392136;32;34258;-83
2023/08/14 06:47:12;;;;;;;5.45;3.90;;;;;;;22.76;96.79;100931.66;5391742;32;34589;-85
2023/08/14 06:50:15;;;;;;;4.62;4.10;;;;;;;22.86;96.47;100931.81;5391756;32;34026;-85
2023/08/14 06:53:18;;;;;;;6.35;4.50;;;;;;;23.01;94.00;100932.13;5391208;32;33896;-85
2023/08/14 06:56:20;;;;;;;5.60;4.32;;;;;;;23.21;94.10;100936.34;5403716;32;33543;-86
2023/08/14 06:59:23;;;;;;;6.37;4.10;;;;;;;23.41;93.24;100942.19;5401641;32;33331;-83
2023/08/14 07:02:26;;;;;;;6.37;4.22;;;;;;;23.65;90.49;100936.50;5392139;32;33397;-83
2023/08/14 07:05:29;;;;;;;5.10;4.28;;;;;;;23.75;90.52;100943.03;5404236;32;33774;-83
2023/08/14 07:08:32;;;;;;;4.80;3.97;;;;;;;23.86;85.34;100940.44;5391585;32;33978;-84
2023/08/14 07:11:38;;;;;;;6.85;3.80;;;;;;;23.96;83.99;100940.59;5394407;32;33889;-83
2023/08/14 07:14:41;;;;;;;5.20;3.50;;;;;;;24.26;83.74;100940.16;5407264;32;34165;-83
2023/08/14 07:17:45;;;;;;;5.60;4.00;;;;;;;24.39;80.15;100942.53;5409482;32;33759;-84
2023/08/14 07:20:48;;;;;;;4.97;4.00;;;;;;;24.43;80.24;100929.97;5406151;32;34872;-84
2023/08/14 07:23:51;;;;;;;5.03;3.75;;;;;;;24.63;78.89;100926.62;5420246;32;34285;-84
2023/08/14 07:26:54;;;;;;;4.53;3.78;;;;;;;24.72;77.93;100928.94;5393746;32;33451;-84
2023/08/14 07:29:57;;;;;;;5.95;3.17;;;;;;;24.95;76.67;100927.75;5407524;32;33782;-83
2023/08/14 07:33:00;;;;;;;4.75;3.10;;;;;;;25.05;73.42;100928.69;5408754;32;34693;-84
2023/08/14 07:36:03;;;;;;;3.97;3.03;;;;;;;25.33;74.01;100933.13;5406806;32;34749;-83
2023/08/14 07:39:09;;;;;;;5.40;3.60;;;;;;;25.45;72.62;100934.88;5406876;32;35150;-83
2023/08/14 07:42:13;;;;;;;5.28;3.22;;;;;;;25.61;70.61;100938.59;5415822;32;33871;-84
2023/08/14 07:45:16;;;;;;;4.50;3.08;;;;;;;25.70;71.91;100934.22;5402955;32;33472;-84
2023/08/14 07:48:19;;;;;;;4.65;3.05;;;;;;;25.88;71.01;100936.59;5403060;32;33452;-83
2023/08/14 07:51:22;;;;;;;4.70;3.70;;;;;;;26.09;67.01;100931.19;5390747;32;33634;-84
2023/08/14 07:54:25;;;;;;;4.10;3.20;;;;;;;26.15;67.35;100938.37;5402606;32;34066;-83
2023/08/14 07:57:28;;;;;;;3.45;3.15;;;;;;;26.37;68.02;100936.28;5416824;32;34578;-84
2023/08/14 08:00:31;;;;;;;3.75;3.22;;;;;;;26.59;69.37;100933.38;5402658;32;34950;-84
2023/08/14 08:03:34;;;;;;;2.95;2.75;;;;;;;26.76;63.55;100922.09;5392472;32;33347;-83
2023/08/14 08:06:37;;;;;;;6.32;3.00;;;;;;;26.74;63.18;100918.78;5416628;32;33537;-83
2023/08/14 08:09:47;;;;;;;4.78;3.33;;;;;;;26.87;64.23;100917.41;5404089;32;33826;-83
2023/08/14 08:12:50;;;;;;;2.92;2.65;;;;;;;26.86;61.32;100926.81;5416372;32;34564;-83
2023/08/14 08:15:53;;;;;;;3.20;2.80;;;;;;;27.04;61.79;100922.69;5390762;32;33619;-83
2023/08/14 08:18:56;;;;;;;3.50;3.17;;;;;;;27.12;65.05;100920.22;5390613;32;33218;-83
2023/08/14 08:21:59;;;;;;;5.57;3.08;;;;;;;27.34;62.18;100917.22;5402778;32;34816;-83
2023/08/14 08:25:02;;;;;;;3.92;3.10;;;;;;;27.50;63.38;100912.50;5402509;32;34512;-83
2023/08/14 08:28:05;;;;;;;3.62;2.90;;;;;;;27.75;59.75;100913.56;5402606;32;33917;-83
2023/08/14 08:31:08;;;;;;;6.20;3.00;;;;;;;27.89;55.95;100911.91;5389696;32;33480;-83
2023/08/14 08:34:11;;;;;;;2.95;2.70;;;;;;;27.84;55.78;100917.47;5415127;32;33832;-83
2023/08/14 08:37:16;;;;;;;4.18;2.80;;;;;;;27.87;55.98;100921.59;5402391;32;33754;-83
2023/08/14 08:40:20;;;;;;;4.40;3.05;;;;;;;27.93;53.95;100926.84;5402716;32;34040;-83
2023/08/14 08:43:23;;;;;;;3.78;2.62;;;;;;;28.14;53.78;100924.87;5416167;32;33964;-84
2023/08/14 08:46:28;;;;;;;2.80;2.60;;;;;;;28.35;53.18;100925.63;5402890;32;33373;-83
2023/08/14 08:49:32;;;;;;;2.75;2.55;;;;;;;28.54;51.70;100930.53;5401533;32;35071;-87
2023/08/14 08:52:35;;;;;;;3.40;2.60;;;;;;;28.72;50.67;100932.66;5388432;32;33782;-87
2023/08/14 08:55:38;;;;;;;3.45;2.50;;;;;;;28.74;50.50;100921.28;5397535;32;34470;-87
2023/08/14 08:58:42;;;;;;;2.67;2.47;;;;;;;28.82;51.66;100915.16;5383767;33;33726;-83
2023/08/14 09:01:45;;;;;;;3.30;2.50;;;;;;;28.94;47.99;100924.75;5397158;33;34624;-83
2023/08/14 09:04:48;;;;;;;3.78;2.50;;;;;;;29.03;50.11;100929.72;5383780;33;33869;-83
2023/08/14 09:07:51;;;;;;;4.68;2.70;;;;;;;29.01;47.34;100912.50;5398660;33;34240;-83
2023/08/14 09:10:54;;;;;;;3.85;2.75;;;;;;;29.17;47.45;100910.50;5400258;33;33429;-83
2023/08/14 09:13:56;;;;;;;2.87;2.62;;;;;;;29.41;46.36;100905.84;5406675;32;32922;-83
2023/08/14 09:17:00;;;;;;;3.00;2.67;;;;;;;29.73;45.44;100910.00;5418308;32;34817;-83
2023/08/14 09:20:04;;;;;;;2.50;2.30;;;;;;;29.75;45.52;100900.28;5406392;32;34042;-83
2023/08/14 09:23:17;;;;;;;3.15;2.62;;;;;;;29.67;47.22;100902.88;5403065;32;33854;-83
2023/08/14 09:26:20;;;;;;;5.37;2.70;;;;;;;29.81;45.33;100887.16;5402204;32;34087;-83
2023/08/14 09:29:23;;;;;;;4.50;2.58;;;;;;;29.98;44.65;100893.09;5415530;32;34417;-83
2023/08/14 09:32:26;;;;;;;3.28;2.50;;;;;;;29.85;43.73;100882.66;5402195;32;33373;-83
2023/08/14 09:35:29;;;;;;;2.97;2.60;;;;;;;29.92;43.12;100891.47;5402515;32;34343;-83
2023/08/14 09:38:32;;;;;;;3.17;2.90;;;;;;;30.20;43.83;100881.41;5415421;32;33561;-83
2023/08/14 09:41:36;;;;;;;2.58;2.20;;;;;;;30.19;41.74;100884.50;5402157;32;33760;-83
2023/08/14 09:44:40;;;;;;;3.05;2.60;;;;;;;30.32;43.21;100888.53;5415050;32;33908;-83
2023/08/14 09:47:45;;;;;;;2.72;2.50;;;;;;;30.37;41.34;100882.91;5415495;32;33658;-83
2023/08/14 09:50:52;;;;;;;3.78;2.60;;;;;;;30.43;40.03;100881.72;5400394;32;33334;-83
2023/08/14 09:53:56;;;;;;;2.80;2.22;;;;;;;30.54;39.82;100879.59;5370856;33;33736;-83
2023/08/14 09:57:00;;;;;;;2.97;2.28;;;;;;;30.37;42.45;100882.91;5404215;32;33790;-83
2023/08/14 10:00:05;;;;;;;3.30;2.20;;;;;;;30.60;40.28;100875.66;5414845;32;33491;-83
2023/08/14 10:03:11;;;;;;;2.80;2.15;;;;;;;30.86;40.28;100876.94;5413178;32;33419;-83
2023/08/14 10:06:15;;;;;;;8.02;2.30;;;;;;;31.10;39.69;100882.38;5414081;32;33921;-83
2023/08/14 10:09:22;;;;;;;2.17;2.08;;;;;;;30.93;39.87;100885.72;5401143;32;33443;-83
2023/08/14 10:12:29;;;;;;;4.12;2.80;;;;;;;30.82;40.72;100881.44;5411145;32;33797;-83
2023/08/14 10:15:34;;;;;;;4.45;2.90;;;;;;;30.71;41.54;100877.13;5426014;32;34273;-83
2023/08/14 10:18:40;;;;;;;3.03;2.53;;;;;;;30.86;41.51;100879.72;5401988;32;34059;-84
2023/08/14 10:21:45;;;;;;;2.58;2.37;;;;;;;30.91;41.84;100865.72;5412074;32;33748;-83
2023/08/14 10:24:51;;;;;;;2.75;2.50;;;;;;;31.39;41.49;100865.50;5401248;32;34029;-84
2023/08/14 10:27:54;;;;;;;3.15;2.72;;;;;;;31.61;39.07;100870.38;5425920;32;34606;-83
2023/08/14 10:30:59;;;;;;;3.28;2.42;;;;;;;31.71;39.74;100869.38;5416632;32;33865;-83
2023/08/14 10:34:02;;;;;;;2.80;2.60;;;;;;;31.77;38.32;100854.22;5414905;32;34220;-83
2023/08/14 10:37:05;;;;;;;2.67;2.42;;;;;;;31.99;37.84;100859.06;5415404;32;34321;-88
2023/08/14 10:40:23;;;;;;;2.85;2.55;;;;;;;32.21;36.80;100854.75;5389250;32;33710;-87
2023/08/14 10:43:28;;;;;;;;;;;;;;;32.28;37.08;100855.13;5400437;33;35144;-84
2023/08/14 10:46:34;;;;;;;2.87;2.35;;;;;;;32.07;37.29;100849.19;5410081;32;34263;-83
2023/08/14 10:49:44;;;;;;;2.47;2.30;;;;;;;32.45;36.31;100849.75;5418144;32;33911;-84
2023/08/14 10:52:48;;;;;;;2.60;2.40;;;;;;;32.81;37.77;100837.75;5401909;32;34120;-84
2023/08/14 10:55:52;;;;;;;3.70;2.30;;;;;;;32.91;34.47;100843.09;5414549;32;34017;-84
2023/08/14 10:58:58;;;;;;;2.67;2.47;;;;;;;33.11;34.95;100832.56;5410325;32;35107;-84
2023/08/14 11:02:05;;;;;;;2.58;2.37;;;;;;;33.75;34.27;100832.25;5401330;32;34342;-84
2023/08/14 11:05:13;;;;;;;2.47;2.10;;;;;;;34.14;31.81;100830.56;5415865;32;34700;-83
2023/08/14 11:08:16;;;;;;;3.62;3.33;;;;;;;34.50;32.74;100819.94;5386662;33;33439;-83
2023/08/14 11:11:19;;;;;;;2.58;2.37;;;;;;;34.30;32.99;100826.19;5386425;33;33351;-83
2023/08/14 11:14:22;;;;;;;3.37;2.40;;;;;;;34.88;33.97;100821.28;5373822;33;34002;-83
2023/08/14 11:17:27;;;;;;;2.80;2.50;;;;;;;35.08;32.90;100817.00;5378582;33;34393;-84
2023/08/14 11:20:30;;;;;;;4.97;2.50;;;;;;;35.69;30.60;100811.16;5385189;33;33769;-83
2023/08/14 11:23:33;;;;;;;2.60;2.40;;;;;;;35.82;31.16;100813.75;5385701;33;33731;-83
2023/08/14 11:26:36;;;;;;;2.60;2.40;;;;;;;36.23;29.62;100808.56;5393575;32;33541;-82
2023/08/14 11:29:39;;;;;;;6.20;2.45;;;;;;;36.42;28.96;100810.88;5403231;32;34303;-83
2023/08/14 11:32:45;;;;;;;2.75;2.40;;;;;;;36.62;29.27;100809.28;5376457;33;33755;-83
2023/08/14 11:35:48;;;;;;;2.33;2.03;;;;;;;36.83;27.97;100818.50;5398585;33;33581;-83
2023/08/14 11:38:51;;;;;;;2.87;2.45;;;;;;;37.65;27.15;100809.34;5385314;33;33833;-82
2023/08/14 11:41:54;;;;;;;2.20;2.10;;;;;;;38.78;26.18;100805.63;5398532;33;34462;-83
2023/08/14 11:45:03;;;;;;;2.15;1.95;;;;;;;39.60;25.03;100800.56;5398253;33;33541;-83
2023/08/14 11:48:07;;;;;;;2.87;2.00;;;;;;;40.47;23.41;100801.41;5399419;32;33880;-83
2023/08/14 11:51:10;;;;;;;2.05;1.95;;;;;;;41.33;22.63;100795.41;5398076;32;33901;-83
2023/08/14 11:54:14;;;;;;;1.83;1.73;;;;;;;42.88;20.40;100793.63;5366306;33;33607;-83
2023/08/14 11:57:16;;;;;;;3.72;1.85;;;;;;;42.62;21.09;100788.84;5385499;33;33777;-83
2023/08/14 12:00:20;;;;;;;2.62;2.00;;;;;;;43.74;19.57;100790.78;5375584;33;33663;-83
2023/08/14 12:03:34;;;;;;;4.25;1.83;;;;;;;43.88;21.43;100788.84;5388024;33;34435;-83
2023/08/14 12:06:37;;;;;;;2.90;2.05;;;;;;;44.71;18.78;100789.25;5384459;33;34555;-83
2023/08/14 12:09:40;;;;;;;3.15;1.60;;;;;;;44.25;19.60;100779.31;5372511;33;33753;-83
2023/08/14 12:12:43;;;;;;;1.98;1.83;;;;;;;45.48;18.21;100784.09;5390874;33;34725;-86
2023/08/14 12:16:06;;;;;;;1.80;1.70;;;;;;;43.43;19.68;100798.63;5379025;33;33803;-84
2023/08/14 12:19:21;;;;;;;1.77;1.50;;;;;;;44.95;18.80;100782.03;5379766;33;33875;-83
2023/08/14 12:22:26;;;;;;;1.57;1.43;;;;;;;43.62;18.83;100787.06;5378810;33;33456;-83
2023/08/14 12:25:29;;;;;;;1.95;1.52;;;;;;;44.56;17.74;100786.37;5379939;33;33988;-84
2023/08/14 12:28:32;;;;;;;2.90;1.50;;;;;;;45.50;16.30;100775.16;5385098;33;34856;-83
2023/08/14 12:31:34;;;;;;;3.42;1.60;;;;;;;46.21;16.49;100782.75;5397328;33;34008;-83
2023/08/14 12:34:38;;;;;;;4.65;1.75;;;;;;;47.23;16.16;100768.38;5396686;33;34111;-83
2023/08/14 12:37:41;;;;;;;1.50;1.40;;;;;;;46.76;16.44;100779.28;5397357;33;33433;-83
2023/08/14 12:40:44;;;;;;;2.75;1.40;;;;;;;46.66;18.02;100768.75;5397795;33;35055;-84
2023/08/14 12:43:47;;;;;;;1.87;1.48;;;;;;;47.69;15.46;100770.00;5396226;33;34196;-83
2023/08/14 12:46:50;;;;;;;2.03;1.80;;;;;;;46.82;15.92;100769.06;5381248;33;33830;-83
2023/08/14 12:49:55;;;;;;;1.87;1.55;;;;;;;47.64;15.63;100770.44;5379514;33;34140;-83
2023/08/14 12:52:58;;;;;;;1.73;1.62;;;;;;;47.17;16.26;100770.03;5367312;32;34690;-83
2023/08/14 12:56:01;;;;;;;2.17;1.58;;;;;;;47.57;15.55;100767.69;5373586;33;34674;-84
2023/08/14 12:59:07;;;;;;;2.08;1.87;;;;;;;48.16;15.77;100766.66;5388008;33;33633;-84
2023/08/14 13:02:10;;;;;;;6.05;1.85;;;;;;;48.69;14.70;100760.22;5404919;33;34361;-84
2023/08/14 13:05:13;;;;;;;5.25;1.50;;;;;;;47.73;14.84;100750.78;5388575;33;33545;-83
2023/08/14 13:08:16;;;;;;;2.20;1.80;;;;;;;48.21;15.41;100758.44;5374324;33;34014;-83
2023/08/14 13:11:19;;;;;;;3.40;1.42;;;;;;;47.99;15.30;100766.41;5376311;32;33786;-84
2023/08/14 13:14:22;;;;;;;1.83;1.73;;;;;;;49.14;14.67;100745.63;5374920;33;33590;-84
2023/08/14 13:17:25;;;;;;;2.22;1.65;;;;;;;49.52;14.68;100747.44;5401383;32;33614;-83
2023/08/14 13:20:27;;;;;;;4.03;1.77;;;;;;;48.78;15.96;100751.91;5400360;32;33892;-83
2023/08/14 13:23:30;;;;;;;1.70;1.60;;;;;;;49.98;14.40;100745.75;5400328;32;33263;-83
2023/08/14 13:26:33;;;;;;;1.60;1.45;;;;;;;48.97;14.55;100749.59;5401233;32;33558;-83
2023/08/14 13:29:40;;;;;;;2.37;1.50;;;;;;;49.22;13.46;100738.56;5402581;32;33689;-83
2023/08/14 13:32:43;;;;;;;1.98;1.50;;;;;;;49.14;14.29;100733.38;5416522;32;34735;-83
2023/08/14 13:35:46;;;;;;;1.67;1.58;;;;;;;49.33;14.11;100731.84;5376763;32;34059;-83
2023/08/14 13:38:49;;;;;;;1.58;1.48;;;;;;;49.07;14.07;100728.59;5399748;32;33872;-83
2023/08/14 13:41:52;;;;;;;1.45;1.35;;;;;;;48.30;14.45;100729.34;5401288;32;33977;-82
2023/08/14 13:44:55;;;;;;;1.70;1.60;;;;;;;48.80;14.06;100722.91;5392141;33;33904;-82
2023/08/14 13:48:14;;;;;;;1.85;1.75;;;;;;;49.48;13.13;100721.75;5397904;32;33829;-83
2023/08/14 13:51:17;;;;;;;1.98;1.65;;;;;;;49.50;14.18;100727.84;5413662;32;33543;-82
2023/08/14 13:54:20;;;;;;;1.92;1.67;;;;;;;48.66;15.21;100723.12;5413453;32;32110;-83
2023/08/14 13:57:23;;;;;;;3.95;2.03;;;;;;;48.09;15.55;100719.81;5377482;32;33895;-87
2023/08/14 14:00:26;;;;;;;3.25;1.80;;;;;;;45.58;17.28;100711.41;5401067;32;33865;-87
2023/08/14 14:03:32;;;;;;;2.92;1.80;;;;;;;45.88;17.48;100717.38;5401125;32;34569;-87
2023/08/14 14:06:35;;;;;;;1.85;1.73;;;;;;;46.96;16.52;100714.00;5402845;32;33958;-84
2023/08/14 14:09:38;;;;;;;2.40;1.60;;;;;;;46.70;16.33;100701.16;5377382;32;34227;-84
2023/08/14 14:12:43;;;;;;;1.93;1.70;;;;;;;46.42;17.13;100705.78;5401799;32;34142;-84
2023/08/14 14:16:03;;;;;;;1.60;1.50;;;;;;;46.00;17.62;100704.75;5403434;32;33841;-82
2023/08/14 14:19:06;;;;;;;2.95;1.52;;;;;;;43.83;18.49;100698.44;5397013;32;33964;-81
2023/08/14 14:22:09;;;;;;;2.58;2.05;;;;;;;41.29;20.74;100698.47;5370853;33;33732;-82
2023/08/14 14:25:12;;;;;;;4.72;2.00;;;;;;;38.84;23.64;100699.19;5382683;33;33826;-84
2023/08/14 14:28:16;;;;;;;2.55;1.73;;;;;;;36.86;26.09;100702.75;5382717;33;33466;-84
2023/08/14 14:31:18;;;;;;;2.47;2.28;;;;;;;35.69;27.89;100699.97;5370458;33;33736;-84
2023/08/14 14:34:21;;;;;;;2.00;1.90;;;;;;;35.36;29.38;100692.19;5370185;33;34087;-84
2023/08/14 14:37:24;;;;;;;4.97;1.87;;;;;;;34.49;28.39;100695.28;5382347;33;34031;-84
2023/08/14 14:40:27;;;;;;;2.55;1.80;;;;;;;34.56;28.96;100699.56;5382573;33;34337;-84
2023/08/14 14:43:33;;;;;;;2.83;2.00;;;;;;;34.64;29.66;100705.16;5370642;33;34030;-84
2023/08/14 14:46:37;;;;;;;2.33;2.20;;;;;;;34.09;30.01;100705.81;5395813;33;33925;-84
2023/08/14 14:49:39;;;;;;;4.25;2.10;;;;;;;33.57;30.33;100709.34;5383587;33;33798;-84
2023/08/14 14:52:42;;;;;;;2.42;2.22;;;;;;;33.61;31.03;100701.13;5385060;33;33523;-84
2023/08/14 14:55:45;;;;;;;5.97;2.20;;;;;;;33.37;31.61;100696.75;5384749;33;34393;-84
2023/08/14 14:58:48;;;;;;;3.35;2.20;;;;;;;32.97;31.15;100693.97;5385211;32;33575;-84
2023/08/14 15:01:51;;;;;;;2.20;1.98;;;;;;;32.56;32.53;100697.03;5373582;33;33776;-84
2023/08/14 15:04:54;;;;;;;2.20;2.10;;;;;;;32.26;33.17;100696.62;5401953;33;33923;-84
2023/08/14 15:07:57;;;;;;;2.20;2.00;;;;;;;32.20;33.08;100692.28;5378884;33;279284;-84
2023/08/14 15:11:00;;;;;;;6.65;2.72;;;;;;;32.00;33.10;100690.00;5374747;33;33913;-84
2023/08/14 15:14:03;;;;;;;2.62;2.42;;;;;;;31.66;33.71;100696.88;5390827;33;33938;-84
2023/08/14 15:17:06;;;;;;;3.37;2.40;;;;;;;31.57;33.70;100687.59;5398606;33;33503;-84
2023/08/14 15:20:10;;;;;;;2.75;2.47;;;;;;;31.39;34.05;100687.41;5384569;33;33618;-84
2023/08/14 15:23:13;;;;;;;2.55;2.35;;;;;;;31.36;34.97;100690.00;5373042;33;33673;-84
2023/08/14 15:26:16;;;;;;;2.40;2.20;;;;;;;31.22;34.82;100684.41;5384767;33;33473;-84
2023/08/14 15:29:19;;;;;;;3.05;2.28;;;;;;;31.07;35.26;100682.75;5372713;33;33770;-84
2023/08/14 15:32:21;;;;;;;2.72;2.00;;;;;;;30.95;35.72;100682.44;5398461;32;33810;-84
2023/08/14 15:35:24;;;;;;;2.70;2.50;;;;;;;30.79;36.33;100678.28;5400612;32;35488;-84
2023/08/14 15:38:27;;;;;;;2.97;2.50;;;;;;;30.67;36.46;100679.56;5384591;33;34348;-84
2023/08/14 15:41:30;;;;;;;3.35;2.65;;;;;;;30.53;36.95;100683.44;5372552;33;33840;-84
2023/08/14 15:44:33;;;;;;;2.62;2.42;;;;;;;30.63;37.66;100675.75;5384496;33;33741;-84
2023/08/14 15:47:36;;;;;;;4.00;2.42;;;;;;;30.38;37.75;100673.41;5385218;33;33774;-84
2023/08/14 15:50:41;;;;;;;3.37;3.03;;;;;;;30.32;38.28;100666.28;5399904;33;34675;-84
2023/08/14 15:53:44;;;;;;;3.15;2.53;;;;;;;30.27;38.69;100676.38;5384575;33;33971;-84
